Time;durP1;ratioP1;P1;durP2;ratioP2;P2;SDS_P1;SDS_P2;PMS_P1;PMS_P2;Temp;Humidity;BMP_temperature;BMP_pressure;BME280_temperature;BME280_humidity;BME280_pressure;Samples;Min_cycle;Max_cycle;Signal;HPM_P1;HPM_P2
2022/05/18 00:02:04;;;;;;;22.50;8.18;;;;;;;7.98;47.75;99348.25;1752601;81;21066;-77
2022/05/18 00:04:31;;;;;;;16.95;6.92;;;;;;;7.95;48.20;99342.66;1752254;81;21797;-76
2022/05/18 00:06:59;;;;;;;14.20;6.30;;;;;;;7.92;48.31;99345.81;1752130;81;21059;-76
2022/05/18 00:09:25;;;;;;;9.73;4.90;;;;;;;7.86;48.61;99337.65;1750799;81;21095;-77
2022/05/18 00:11:52;;;;;;;8.33;4.47;;;;;;;7.81;48.51;99343.47;1752507;81;22262;-77
2022/05/18 00:14:19;;;;;;;6.17;3.90;;;;;;;7.75;48.61;99341.88;1752381;81;21022;-76
2022/05/18 00:16:46;;;;;;;6.67;3.67;;;;;;;7.72;48.71;99340.64;1730490;82;21618;-76
2022/05/18 00:19:12;;;;;;;4.47;2.83;;;;;;;7.69;48.77;99342.02;1752153;81;21055;-76
2022/05/18 00:21:39;;;;;;;2.92;2.20;;;;;;;7.62;49.07;99343.94;1730394;82;21062;-76
2022/05/18 00:24:08;;;;;;;15.25;2.80;;;;;;;7.59;49.03;99343.16;1752549;81;21529;-76
2022/05/18 00:26:34;;;;;;;3.60;2.50;;;;;;;7.55;49.47;99349.38;1720934;82;21083;-76
2022/05/18 00:29:01;;;;;;;4.00;2.42;;;;;;;7.51;49.71;99350.34;1752237;81;21145;-77
2022/05/18 00:31:27;;;;;;;7.87;2.65;;;;;;;7.45;49.99;99347.44;1716316;82;21024;-77
2022/05/18 00:33:54;;;;;;;7.90;2.62;;;;;;;7.43;50.33;99349.20;1752490;81;21109;-76
2022/05/18 00:36:20;;;;;;;7.97;3.27;;;;;;;7.37;50.26;99358.08;1716569;82;21035;-76
2022/05/18 00:38:48;;;;;;;8.70;4.30;;;;;;;7.35;50.37;99353.34;1752241;81;21526;-76
2022/05/18 00:41:19;;;;;;;17.52;5.53;;;;;;;7.35;50.90;99362.50;1691397;83;21645;-76
2022/05/18 00:43:43;;;;;;;22.67;7.58;;;;;;;7.33;51.07;99362.98;1714148;82;20991;-76
2022/05/18 00:46:14;;;;;;;20.82;8.43;;;;;;;7.31;51.02;99366.06;1714068;83;21132;-76
2022/05/18 00:48:41;;;;;;;20.35;9.08;;;;;;;7.30;51.06;99363.52;1713889;83;20996;-74
2022/05/18 00:51:19;;;;;;;20.35;9.08;;;;;;;7.30;51.23;99366.98;1714034;83;21578;-77
2022/05/18 00:54:06;;;;;;;29.70;10.68;;;;;;;7.30;51.46;99366.98;1713828;83;21110;-77
2022/05/18 00:56:44;;;;;;;26.00;11.45;;;;;;;7.28;51.49;99372.70;1728765;83;22048;-77
2022/05/18 00:59:16;;;;;;;23.75;12.05;;;;;;;7.25;51.89;99363.62;1728425;82;21102;-77
2022/05/18 01:01:42;;;;;;;36.10;14.18;;;;;;;7.22;52.24;99372.38;1728525;82;21074;-77
2022/05/18 01:04:08;;;;;;;47.55;18.82;;;;;;;7.18;52.36;99370.75;1728880;83;21514;-77
2022/05/18 01:06:49;;;;;;;54.50;22.52;;;;;;;7.15;52.54;99369.96;1728381;82;21945;-74
2022/05/18 01:09:35;;;;;;;51.05;21.68;;;;;;;7.11;52.80;99370.91;1687751;82;21082;-75
2022/05/18 01:12:04;;;;;;;54.10;20.57;;;;;;;7.06;52.96;99367.97;1727976;83;21121;-82
2022/05/18 01:14:37;;;;;;;47.03;19.70;;;;;;;7.00;53.27;99372.02;1728379;82;21064;-82
2022/05/18 01:17:04;;;;;;;53.42;20.30;;;;;;;6.92;53.72;99370.47;1728292;82;21047;-81
2022/05/18 01:19:51;;;;;;;57.23;21.77;;;;;;;6.86;54.22;99376.71;1728369;83;21150;-82
2022/05/18 01:22:29;;;;;;;57.20;22.48;;;;;;;6.78;54.44;99377.31;1715021;83;21483;-76
2022/05/18 01:25:26;;;;;;;60.52;23.38;;;;;;;6.67;54.88;99379.72;1728754;82;21499;-76
2022/05/18 01:27:53;;;;;;;64.47;25.35;;;;;;;6.59;55.13;99379.01;1728276;82;21011;-75
2022/05/18 01:30:20;;;;;;;62.40;24.92;;;;;;;6.51;55.60;99381.77;1728273;83;21114;-75
2022/05/18 01:32:51;;;;;;;65.32;23.77;;;;;;;6.45;56.02;99384.95;1732742;81;21535;-76
2022/05/18 01:35:28;;;;;;;72.08;24.65;;;;;;;6.42;56.20;99386.31;1735917;82;21062;-76
2022/05/18 01:38:00;;;;;;;59.18;22.77;;;;;;;6.39;56.77;99391.59;1735863;82;21015;-76
2022/05/18 01:40:47;;;;;;;62.70;24.63;;;;;;;6.35;56.99;99389.95;1736531;82;21530;-76
2022/05/18 01:43:29;;;;;;;74.70;26.90;;;;;;;6.29;57.11;99387.87;1736036;82;21561;-76
2022/05/18 01:46:00;;;;;;;74.17;24.63;;;;;;;6.26;57.77;99383.15;1736273;82;21111;-76
2022/05/18 01:48:31;;;;;;;55.60;22.95;;;;;;;6.20;57.97;99391.95;1735762;82;21102;-76
2022/05/18 01:50:59;;;;;;;60.00;22.87;;;;;;;6.17;57.97;99393.34;1736051;82;21640;-76
2022/05/18 01:53:27;;;;;;;54.27;20.43;;;;;;;6.10;58.68;99395.62;1736132;82;21046;-76
2022/05/18 01:55:54;;;;;;;59.53;20.10;;;;;;;6.05;58.69;99396.16;1736432;82;21538;-76
2022/05/18 01:58:21;;;;;;;47.38;19.70;;;;;;;6.00;58.98;99397.56;1736044;82;21752;-76
2022/05/18 02:00:48;;;;;;;53.15;17.95;;;;;;;5.95;59.32;99392.38;1736018;82;21058;-76
2022/05/18 02:03:14;;;;;;;38.70;15.50;;;;;;;5.91;59.79;99401.14;1735746;82;22079;-76
2022/05/18 02:05:41;;;;;;;44.70;15.68;;;;;;;5.87;60.02;99400.80;1736414;82;21618;-76
2022/05/18 02:08:07;;;;;;;41.73;14.78;;;;;;;5.81;60.70;99402.19;1734113;82;21554;-75
2022/05/18 02:10:36;;;;;;;42.80;15.65;;;;;;;5.76;60.92;99409.24;1735755;82;21027;-76
2022/05/18 02:13:02;;;;;;;43.28;14.78;;;;;;;5.72;61.06;99414.97;1735757;82;21102;-77
2022/05/18 02:15:30;;;;;;;40.03;14.78;;;;;;;5.69;61.48;99408.94;1736037;82;21082;-76
2022/05/18 02:17:56;;;;;;;33.38;12.78;;;;;;;5.65;61.96;99412.47;1736051;82;21074;-75
2022/05/18 02:20:23;;;;;;;32.15;12.15;;;;;;;5.55;62.59;99408.72;1735762;82;21054;-76
2022/05/18 02:22:51;;;;;;;38.80;12.43;;;;;;;5.51;62.96;99413.55;1735676;82;21150;-76
2022/05/18 02:25:19;;;;;;;33.48;10.88;;;;;;;5.48;62.97;99417.95;1735683;82;21058;-76
2022/05/18 02:27:46;;;;;;;21.00;10.03;;;;;;;5.46;63.63;99415.81;1735859;82;21066;-75
2022/05/18 02:30:14;;;;;;;24.85;9.88;;;;;;;5.43;64.15;99411.95;1736014;82;21027;-76
2022/05/18 02:32:41;;;;;;;21.87;9.33;;;;;;;5.42;64.04;99417.62;1757231;81;21041;-76
2022/05/18 02:35:09;;;;;;;27.93;9.70;;;;;;;5.42;64.22;99417.62;1759621;81;21151;-75
2022/05/18 02:37:35;;;;;;;26.55;9.70;;;;;;;5.42;64.06;99421.53;1724134;83;21047;-76
2022/05/18 02:40:02;;;;;;;26.60;10.32;;;;;;;5.43;64.61;99421.96;1760018;81;21164;-76
2022/05/18 02:42:29;;;;;;;31.77;11.95;;;;;;;5.39;64.84;99428.09;1759949;81;21117;-76
2022/05/18 02:44:56;;;;;;;32.35;12.05;;;;;;;5.35;65.17;99423.82;1759757;81;21077;-76
2022/05/18 02:47:23;;;;;;;23.95;11.18;;;;;;;5.30;65.43;99421.72;1760235;81;21481;-76
2022/05/18 02:49:51;;;;;;;34.10;12.70;;;;;;;5.28;65.74;99417.83;1759688;81;21505;-75
2022/05/18 02:52:18;;;;;;;35.20;13.32;;;;;;;5.26;65.88;99418.72;1760174;81;21054;-76
2022/05/18 02:57:31;;;;;;;32.60;11.28;;;;;;;5.19;66.67;99421.44;1759806;81;21058;-76
2022/05/18 02:59:58;;;;;;;28.83;11.00;;;;;;;5.15;67.15;99426.27;1759806;81;22143;-76
2022/05/18 03:02:24;;;;;;;35.23;13.08;;;;;;;5.13;67.25;99420.21;1759738;81;21061;-76
2022/05/18 03:04:51;;;;;;;34.45;13.18;;;;;;;5.11;67.46;99419.80;1759804;81;21129;-76
2022/05/18 03:07:18;;;;;;;33.18;12.88;;;;;;;5.11;67.64;99425.02;1756626;81;21105;-76
2022/05/18 03:09:44;;;;;;;36.45;13.88;;;;;;;5.11;67.50;99424.59;1754585;81;21015;-76
2022/05/18 03:12:12;;;;;;;37.03;15.58;;;;;;;5.15;67.89;99424.95;1754554;81;21107;-76
2022/05/18 03:14:38;;;;;;;41.53;15.93;;;;;;;5.17;67.89;99425.80;1754593;81;21065;-76
2022/05/18 03:17:05;;;;;;;47.70;17.02;;;;;;;5.21;68.13;99432.70;1754212;81;21042;-76
2022/05/18 03:19:31;;;;;;;47.00;16.90;;;;;;;5.25;68.30;99436.58;1754290;81;21041;-76
2022/05/18 03:24:44;;;;;;;37.00;17.15;;;;;;;5.31;68.50;99442.58;1754332;81;22187;-75
2022/05/18 03:27:10;;;;;;;43.20;15.55;;;;;;;5.36;68.54;99438.57;1754423;81;21030;-76
2022/05/18 03:29:37;;;;;;;40.45;14.38;;;;;;;5.40;68.51;99438.97;1754205;81;20990;-76
2022/05/18 03:32:05;;;;;;;42.27;16.45;;;;;;;5.50;68.46;99441.00;1754112;81;20939;-75
2022/05/18 03:34:36;;;;;;;35.90;15.15;;;;;;;5.53;68.50;99446.14;1754153;81;21042;-76
2022/05/18 03:37:03;;;;;;;42.83;14.47;;;;;;;5.58;68.13;99446.52;1754064;81;21319;-76
2022/05/18 03:39:29;;;;;;;43.02;15.70;;;;;;;5.61;68.20;99449.95;1754095;81;21631;-76
2022/05/18 03:41:57;;;;;;;38.30;13.58;;;;;;;5.59;68.15;99449.52;1753976;81;21006;-76
2022/05/18 03:44:23;;;;;;;39.73;12.98;;;;;;;5.56;68.28;99451.33;1754285;81;20986;-75
2022/05/18 03:46:49;;;;;;;32.95;12.37;;;;;;;5.54;68.42;99455.71;1753999;81;21038;-76
2022/05/18 03:49:17;;;;;;;24.57;10.40;;;;;;;5.52;68.44;99453.13;1754112;81;21113;-76
2022/05/18 03:51:43;;;;;;;26.68;9.48;;;;;;;5.54;68.60;99450.49;1754339;81;21053;-76
2022/05/18 03:54:10;;;;;;;19.27;7.85;;;;;;;5.55;68.71;99455.69;1754451;81;21001;-76
2022/05/18 03:56:36;;;;;;;15.38;7.40;;;;;;;5.58;68.79;99457.38;1754478;81;21007;-76
2022/05/18 03:59:02;;;;;;;18.60;7.70;;;;;;;5.58;69.29;99456.95;1754084;81;21025;-76
2022/05/18 04:01:30;;;;;;;17.07;7.03;;;;;;;5.62;69.35;99455.61;1754207;81;21224;-76
2022/05/18 04:03:56;;;;;;;22.45;7.22;;;;;;;5.66;69.30;99455.52;1754327;81;21030;-76
2022/05/18 04:06:23;;;;;;;19.50;5.83;;;;;;;5.73;69.58;99458.89;1754545;81;21094;-75
2022/05/18 04:08:49;;;;;;;13.05;5.20;;;;;;;5.80;69.61;99460.96;1754039;81;21053;-76
2022/05/18 04:11:16;;;;;;;12.88;4.95;;;;;;;5.84;69.51;99462.20;1754302;81;20990;-76
2022/05/18 04:13:44;;;;;;;6.50;3.70;;;;;;;5.91;69.27;99469.04;1754466;81;21692;-77
2022/05/18 04:16:10;;;;;;;10.80;4.42;;;;;;;6.02;69.19;99469.33;1774553;80;21128;-76
2022/05/18 04:18:38;;;;;;;8.95;3.85;;;;;;;6.07;69.39;99469.69;1791165;80;21053;-76
2022/05/18 04:21:06;;;;;;;7.97;3.70;;;;;;;6.12;69.15;99468.31;1790965;80;21057;-76
2022/05/18 04:23:33;;;;;;;7.40;3.70;;;;;;;6.18;69.10;99468.64;1791143;80;21073;-76
2022/05/18 04:25:59;;;;;;;7.20;3.87;;;;;;;6.23;69.13;99469.42;1790935;80;21176;-76
2022/05/18 04:28:26;;;;;;;7.65;3.50;;;;;;;6.29;68.93;99478.02;1766356;80;21081;-76
2022/05/18 04:30:53;;;;;;;9.03;3.30;;;;;;;6.32;68.94;99476.66;1790818;80;21144;-76
2022/05/18 04:33:21;;;;;;;9.15;4.12;;;;;;;6.35;68.83;99476.18;1791260;80;21096;-76
2022/05/18 04:35:50;;;;;;;7.12;3.70;;;;;;;6.38;68.64;99476.13;1788621;80;21073;-76
2022/05/18 04:38:21;;;;;;;5.53;3.33;;;;;;;6.42;68.62;99477.78;1788042;80;21030;-76
2022/05/18 04:40:48;;;;;;;7.03;3.92;;;;;;;6.48;68.71;99480.30;1787815;80;21645;-76
2022/05/18 04:43:18;;;;;;;7.92;3.40;;;;;;;6.52;68.74;99483.25;1788185;80;21085;-76
2022/05/18 04:45:46;;;;;;;7.83;4.17;;;;;;;6.52;68.63;99481.95;1787775;80;21494;-76
2022/05/18 04:48:15;;;;;;;11.12;4.67;;;;;;;6.49;68.59;99478.96;1788113;80;21538;-76
2022/05/18 04:50:44;;;;;;;12.63;4.28;;;;;;;6.47;68.86;99477.25;1788116;80;21113;-76
2022/05/18 04:53:11;;;;;;;6.65;4.08;;;;;;;6.48;69.03;99488.98;1788243;80;21066;-76
2022/05/18 04:55:38;;;;;;;11.78;3.80;;;;;;;6.49;69.10;99488.56;1788002;80;21125;-76
2022/05/18 04:58:05;;;;;;;11.68;3.67;;;;;;;6.47;69.31;99486.40;1788437;80;21498;-76
2022/05/18 05:00:32;;;;;;;5.60;4.22;;;;;;;6.45;69.34;99482.96;1787889;80;21014;-76
2022/05/18 05:03:00;;;;;;;11.20;3.75;;;;;;;6.45;69.48;99485.57;1788092;80;21830;-76
2022/05/18 05:05:26;;;;;;;8.95;3.80;;;;;;;6.47;69.24;99479.86;1763387;80;21101;-77
2022/05/18 05:07:56;;;;;;;7.10;3.62;;;;;;;6.49;69.36;99487.26;1750899;81;21121;-75
2022/05/18 05:10:23;;;;;;;8.45;3.47;;;;;;;6.49;69.47;99480.72;1751328;81;21277;-76
2022/05/18 05:12:50;;;;;;;5.97;2.92;;;;;;;6.49;69.50;99492.48;1750973;81;21042;-76
2022/05/18 05:15:17;;;;;;;6.22;3.12;;;;;;;6.49;69.53;99487.26;1751187;81;21094;-76
2022/05/18 05:17:44;;;;;;;7.65;3.30;;;;;;;6.45;69.69;99490.80;1751238;81;21088;-76
2022/05/18 05:20:11;;;;;;;5.72;3.50;;;;;;;6.41;69.98;99493.06;1751259;81;21137;-76
2022/05/18 05:22:38;;;;;;;6.08;3.80;;;;;;;6.38;70.05;99497.03;1751110;81;21094;-76
2022/05/18 05:25:05;;;;;;;8.68;4.12;;;;;;;6.35;70.05;99492.71;1751137;81;21034;-77
2022/05/18 05:27:32;;;;;;;6.60;4.58;;;;;;;6.35;70.23;99499.70;1751216;81;21703;-76
2022/05/18 05:29:58;;;;;;;5.72;4.40;;;;;;;6.36;70.42;99498.82;1751038;81;21003;-76
2022/05/18 05:32:25;;;;;;;7.37;4.35;;;;;;;6.45;70.45;99496.03;1751360;81;21416;-76
2022/05/18 05:34:53;;;;;;;9.70;5.22;;;;;;;6.54;70.06;99505.45;1752030;81;21086;-76
2022/05/18 05:37:19;;;;;;;6.15;4.22;;;;;;;6.60;69.98;99506.20;1754239;81;21052;-76
2022/05/18 05:39:46;;;;;;;10.88;4.35;;;;;;;6.65;69.70;99509.58;1754316;81;21128;-76
2022/05/18 05:42:12;;;;;;;8.28;4.42;;;;;;;6.66;69.39;99513.08;1754317;81;20990;-76
2022/05/18 05:44:38;;;;;;;6.03;3.85;;;;;;;6.64;69.37;99506.58;1754615;81;20999;-76
2022/05/18 05:47:05;;;;;;;8.30;4.00;;;;;;;6.67;69.52;99509.56;1754020;81;21070;-76
2022/05/18 05:49:32;;;;;;;5.78;3.92;;;;;;;6.71;69.59;99507.32;1754453;81;21088;-76
2022/05/18 05:51:58;;;;;;;7.45;4.05;;;;;;;6.78;69.62;99504.14;1754224;81;21770;-78
2022/05/18 05:54:26;;;;;;;7.62;4.42;;;;;;;6.83;69.33;99508.38;1754187;81;21048;-78
2022/05/18 05:56:54;;;;;;;15.80;4.33;;;;;;;6.87;69.24;99517.02;1754148;81;20999;-78
2022/05/18 05:59:21;;;;;;;13.22;4.70;;;;;;;6.87;69.24;99517.02;1754283;81;21005;-77
2022/05/18 06:01:49;;;;;;;7.40;4.28;;;;;;;6.85;69.40;99520.13;1754511;81;21094;-78
2022/05/18 06:04:17;;;;;;;6.15;4.25;;;;;;;6.84;69.57;99522.31;1754500;81;21123;-76
2022/05/18 06:06:43;;;;;;;7.28;3.62;;;;;;;6.82;69.45;99523.64;1754483;81;21026;-76
2022/05/18 06:09:11;;;;;;;6.17;3.95;;;;;;;6.84;69.59;99525.81;1762542;80;21064;-75
2022/05/18 06:11:37;;;;;;;8.88;4.10;;;;;;;6.87;69.62;99532.72;1791296;80;21022;-75
2022/05/18 06:14:05;;;;;;;10.70;4.50;;;;;;;6.86;69.67;99527.09;1791262;80;21109;-75
2022/05/18 06:16:32;;;;;;;8.13;4.47;;;;;;;6.83;70.14;99529.30;1791297;80;21199;-76
2022/05/18 06:18:59;;;;;;;8.85;4.47;;;;;;;6.83;70.06;99531.92;1791392;80;21564;-75
2022/05/18 06:21:27;;;;;;;9.38;4.80;;;;;;;6.86;70.04;99531.02;1791427;80;21521;-76
2022/05/18 06:23:53;;;;;;;6.42;3.85;;;;;;;6.85;70.08;99542.35;1791309;80;20986;-77
2022/05/18 06:26:21;;;;;;;4.95;3.37;;;;;;;6.86;70.20;99544.94;1791170;80;21583;-77
2022/05/18 06:28:48;;;;;;;5.25;3.08;;;;;;;6.88;70.12;99533.14;1791065;80;22310;-83
2022/05/18 06:31:15;;;;;;;4.62;2.90;;;;;;;6.90;70.25;99552.73;1791318;80;21113;-83
2022/05/18 06:33:41;;;;;;;3.35;2.67;;;;;;;6.93;70.15;99546.14;1791138;80;21018;-83
2022/05/18 06:36:08;;;;;;;7.55;2.47;;;;;;;6.98;70.14;99543.84;1788936;80;21062;-78
2022/05/18 06:38:34;;;;;;;4.83;2.62;;;;;;;7.08;70.02;99544.53;1787788;80;21002;-75
2022/05/18 06:43:46;;;;;;;;;;;;;;;7.21;69.84;99554.28;1790594;80;21071;-76
2022/05/18 06:46:12;;;;;;;3.75;2.60;;;;;;;7.27;68.94;99554.62;1788427;80;20245;-75
2022/05/18 06:48:42;;;;;;;4.72;3.00;;;;;;;7.27;68.86;99550.24;1787857;80;20950;-75
2022/05/18 06:51:09;;;;;;;5.05;3.37;;;;;;;7.29;69.20;99554.99;1787712;80;21710;-75
2022/05/18 06:53:35;;;;;;;4.80;3.00;;;;;;;7.29;69.61;99558.92;1788464;80;22142;-75
2022/05/18 06:56:02;;;;;;;4.17;3.00;;;;;;;7.32;69.71;99560.17;1768028;80;21647;-75
2022/05/18 06:58:28;;;;;;;4.47;3.15;;;;;;;7.28;70.22;99559.83;1751139;81;21511;-74
2022/05/18 07:00:55;;;;;;;7.30;2.85;;;;;;;7.26;71.08;99556.36;1750995;81;21050;-75
2022/05/18 07:03:21;;;;;;;2.90;2.60;;;;;;;7.28;71.57;99566.80;1751525;81;21196;-76
2022/05/18 07:05:48;;;;;;;3.42;2.50;;;;;;;7.28;71.75;99563.76;1751058;81;21148;-76
2022/05/18 07:08:14;;;;;;;5.62;2.30;;;;;;;7.25;71.99;99570.36;1750904;81;20983;-75
2022/05/18 07:10:42;;;;;;;3.00;2.37;;;;;;;7.24;72.45;99568.62;1751127;81;21011;-76
2022/05/18 07:13:09;;;;;;;3.95;2.40;;;;;;;7.23;72.69;99570.84;1750956;81;21042;-76
2022/05/18 07:15:37;;;;;;;2.30;2.10;;;;;;;7.21;73.02;99576.10;1751087;81;21117;-75
2022/05/18 07:18:04;;;;;;;5.05;2.65;;;;;;;7.27;73.67;99577.72;1750940;81;21141;-75
2022/05/18 07:20:30;;;;;;;3.12;2.25;;;;;;;7.33;74.08;99584.16;1751267;81;21106;-75
2022/05/18 07:22:57;;;;;;;3.00;2.60;;;;;;;7.40;74.41;99583.13;1751231;81;21077;-75
2022/05/18 07:25:24;;;;;;;3.22;2.65;;;;;;;7.51;74.70;99588.13;1750986;81;21615;-75
2022/05/18 07:27:52;;;;;;;3.87;2.42;;;;;;;7.56;74.42;99576.25;1750850;81;20998;-75
2022/05/18 07:30:19;;;;;;;2.30;2.10;;;;;;;7.60;74.37;99576.16;1750936;81;21205;-75
2022/05/18 07:32:47;;;;;;;3.58;2.12;;;;;;;7.64;74.03;99571.72;1750861;81;21097;-75
2022/05/18 07:35:13;;;;;;;5.30;2.00;;;;;;;7.63;73.96;99577.84;1751084;81;21077;-75
2022/05/18 07:37:39;;;;;;;2.62;1.87;;;;;;;7.59;73.84;99580.13;1750803;81;21109;-74
2022/05/18 07:40:08;;;;;;;2.62;2.40;;;;;;;7.59;74.67;99580.13;1751019;81;21049;-74
2022/05/18 07:42:35;;;;;;;5.08;2.45;;;;;;;7.54;74.95;99581.52;1751204;81;21127;-75
2022/05/18 07:45:04;;;;;;;2.40;2.12;;;;;;;7.55;75.42;99583.71;1750808;81;21145;-75
2022/05/18 07:47:31;;;;;;;4.70;2.10;;;;;;;7.61;75.68;99579.63;1751256;81;21089;-75
2022/05/18 07:49:57;;;;;;;2.65;2.33;;;;;;;7.66;75.98;99591.33;1751057;81;21073;-74
2022/05/18 07:52:25;;;;;;;2.30;1.77;;;;;;;7.66;76.40;99592.18;1751112;81;21041;-76
2022/05/18 07:54:51;;;;;;;1.52;1.42;;;;;;;7.64;76.91;99595.28;1751014;81;21141;-76
2022/05/18 07:57:18;;;;;;;2.10;1.82;;;;;;;7.63;76.89;99588.31;1750914;81;21023;-75
2022/05/18 07:59:45;;;;;;;1.85;1.67;;;;;;;7.62;76.75;99599.70;1751084;81;21533;-74
2022/05/18 08:02:12;;;;;;;3.27;2.10;;;;;;;7.57;76.74;99597.17;1750846;81;21069;-75
2022/05/18 08:04:38;;;;;;;3.55;2.47;;;;;;;7.57;77.30;99593.70;1751073;81;21568;-76
2022/05/18 08:07:05;;;;;;;3.72;1.98;;;;;;;7.61;77.90;99596.66;1766761;80;21742;-75
2022/05/18 08:15:05;;;;;;;5.12;2.02;;;;;;;7.65;77.46;99601.38;1788123;80;22237;-74
2022/05/18 08:17:30;;;;;;;2.12;1.95;;;;;;;7.80;78.88;99590.13;1788108;80;21569;-75
2022/05/18 08:19:57;;;;;;;3.25;1.70;;;;;;;7.87;78.98;99601.77;1788198;80;21058;-75
2022/05/18 08:22:23;;;;;;;5.20;2.12;;;;;;;7.92;78.92;99602.55;1787712;80;21038;-75
2022/05/18 08:24:50;;;;;;;4.25;2.42;;;;;;;7.88;79.14;99607.43;1787846;80;22408;-75
2022/05/18 08:27:16;;;;;;;2.75;2.10;;;;;;;7.81;79.06;99610.17;1787917;80;21616;-75
2022/05/18 08:29:43;;;;;;;5.05;2.05;;;;;;;7.74;79.82;99609.91;1787720;80;21627;-77
2022/05/18 08:32:10;;;;;;;1.98;1.70;;;;;;;7.69;80.00;99610.91;1788157;80;21777;-77
2022/05/18 08:34:37;;;;;;;3.17;2.30;;;;;;;7.68;80.22;99615.26;1787970;80;21033;-76
2022/05/18 08:37:04;;;;;;;5.42;2.15;;;;;;;7.69;80.78;99622.23;1788136;80;21058;-76
2022/05/18 08:39:30;;;;;;;1.85;1.75;;;;;;;7.70;81.29;99610.88;1788473;80;21117;-76
2022/05/18 08:41:58;;;;;;;1.92;1.72;;;;;;;7.72;81.66;99611.70;1788711;80;21136;-77
2022/05/18 08:44:31;;;;;;;2.15;1.95;;;;;;;7.76;82.02;99613.80;1788486;80;21116;-76
2022/05/18 08:47:20;;;;;;;4.90;1.82;;;;;;;7.79;82.72;99614.59;1788471;80;21101;-76
2022/05/18 08:50:02;;;;;;;3.05;1.60;;;;;;;7.85;82.93;99616.66;1788859;80;21053;-75
2022/05/18 08:53:12;;;;;;;2.72;1.60;;;;;;;7.87;82.42;99608.31;1788365;80;21117;-76
2022/05/18 08:56:01;;;;;;;2.37;1.65;;;;;;;7.93;82.62;99616.05;1788706;80;21564;-78
2022/05/18 08:58:41;;;;;;;2.25;1.50;;;;;;;7.98;82.76;99618.12;1788387;80;22309;-78
2022/05/18 09:01:16;;;;;;;1.55;1.45;;;;;;;8.01;82.85;99618.05;1788717;80;21001;-77
2022/05/18 09:03:52;;;;;;;1.25;1.20;;;;;;;8.03;82.96;99607.08;1760504;80;21105;-78
2022/05/18 09:06:34;;;;;;;;;;;;;;;8.08;82.82;99610.45;1753720;81;21033;-78
2022/05/18 09:11:55;;;;;;;2.12;1.30;;;;;;;8.05;82.18;99613.14;1751727;81;21049;-78
2022/05/18 09:14:24;;;;;;;1.70;1.10;;;;;;;7.95;82.45;99619.48;1751760;81;21090;-77
2022/05/18 09:16:57;;;;;;;2.47;1.30;;;;;;;7.90;82.47;99618.31;1751865;81;20999;-77
2022/05/18 09:19:39;;;;;;;6.53;2.15;;;;;;;7.88;82.86;99612.67;1751659;81;21104;-77
2022/05/18 09:22:14;;;;;;;3.10;2.20;;;;;;;7.93;83.06;99618.67;1752080;81;21090;-77
2022/05/18 09:24:51;;;;;;;1.77;1.62;;;;;;;7.97;83.29;99620.34;1751836;81;21484;-76
2022/05/18 09:27:29;;;;;;;1.60;1.50;;;;;;;8.04;83.60;99623.69;1751057;81;21113;-77
2022/05/18 09:30:16;;;;;;;1.67;1.47;;;;;;;8.09;83.52;99629.23;1751816;81;21559;-77
2022/05/18 09:33:30;;;;;;;7.83;1.50;;;;;;;8.14;83.33;99632.60;1751856;81;21112;-77
2022/05/18 09:36:08;;;;;;;2.50;1.67;;;;;;;8.15;83.17;99638.27;1750572;81;21972;-77
2022/05/18 09:39:03;;;;;;;4.87;2.12;;;;;;;8.17;83.50;99645.64;1738973;82;21112;-77
2022/05/18 09:41:35;;;;;;;3.70;1.90;;;;;;;8.16;83.11;99646.98;1738161;82;21057;-78
2022/05/18 09:44:22;;;;;;;2.75;1.80;;;;;;;8.14;83.13;99641.77;1699029;84;21080;-78
2022/05/18 09:46:49;;;;;;;3.52;2.17;;;;;;;8.14;83.66;99643.09;1699020;83;21132;-79
2022/05/18 09:49:32;;;;;;;2.10;1.90;;;;;;;8.16;83.50;99645.67;1699130;83;21057;-78
2022/05/18 09:52:00;;;;;;;2.55;2.12;;;;;;;8.15;83.51;99650.06;1698900;83;21204;-76
2022/05/18 09:54:33;;;;;;;4.53;2.00;;;;;;;8.15;83.49;99652.69;1699078;83;21064;-78
2022/05/18 09:57:22;;;;;;;2.70;1.95;;;;;;;8.16;83.67;99652.23;1698705;83;21611;-83
2022/05/18 10:00:00;;;;;;;3.42;2.22;;;;;;;8.14;83.85;99657.50;1699050;84;21132;-83
2022/05/18 10:08:23;;;;;;;6.92;2.87;;;;;;;8.13;84.44;99664.09;1704756;83;21067;-78
2022/05/18 10:11:05;;;;;;;4.05;2.60;;;;;;;8.14;84.18;99675.84;1723033;83;21070;-77
2022/05/18 10:13:36;;;;;;;6.65;3.42;;;;;;;8.17;84.40;99673.63;1722571;82;21130;-78
2022/05/18 10:16:22;;;;;;;5.87;3.77;;;;;;;8.15;84.08;99678.89;1722502;83;21084;-78
2022/05/18 10:18:51;;;;;;;6.50;3.65;;;;;;;8.14;84.24;99674.53;1718440;83;21201;-76
2022/05/18 10:21:25;;;;;;;7.47;4.12;;;;;;;8.14;84.17;99688.95;1722757;82;20943;-77
2022/05/18 10:24:05;;;;;;;10.45;4.37;;;;;;;8.12;84.12;99682.89;1722520;83;21079;-76
2022/05/18 10:26:41;;;;;;;7.35;4.85;;;;;;;8.11;83.87;99689.02;1716458;83;21494;-77
2022/05/18 10:29:17;;;;;;;8.48;4.95;;;;;;;8.12;83.55;99696.42;1722991;82;20991;-78
2022/05/18 10:31:47;;;;;;;7.33;4.40;;;;;;;8.12;83.97;99692.06;1722692;83;21267;-77
2022/05/18 10:34:28;;;;;;;11.22;4.95;;;;;;;8.19;83.99;99694.95;1695901;83;21125;-78
2022/05/18 10:37:00;;;;;;;13.55;5.50;;;;;;;8.28;84.05;99691.72;1697044;83;20980;-76
2022/05/18 10:39:47;;;;;;;8.23;5.53;;;;;;;8.32;83.94;99695.55;1723973;83;21101;-77
2022/05/18 10:42:30;;;;;;;9.00;4.80;;;;;;;8.33;83.52;99702.96;1724219;83;21035;-76
2022/05/18 10:45:00;;;;;;;7.70;5.15;;;;;;;8.35;83.74;99702.05;1721452;83;21217;-76
2022/05/18 10:47:35;;;;;;;6.83;4.58;;;;;;;8.30;83.25;99699.94;1697691;83;21531;-76
2022/05/18 10:50:27;;;;;;;7.35;4.05;;;;;;;8.27;83.55;99703.09;1723968;83;28182;-76
2022/05/18 10:53:00;;;;;;;5.55;4.00;;;;;;;8.24;83.36;99712.33;1725085;82;21128;-77
2022/05/18 10:55:29;;;;;;;4.40;3.55;;;;;;;8.24;83.43;99709.70;1738509;82;21208;-77
2022/05/18 10:58:07;;;;;;;4.47;3.85;;;;;;;8.22;83.45;99698.39;1735640;82;21102;-77
2022/05/18 11:00:54;;;;;;;5.28;3.70;;;;;;;8.19;83.24;99709.37;1735620;82;21086;-77
2022/05/18 11:03:50;;;;;;;6.12;4.40;;;;;;;8.16;83.44;99704.65;1735838;82;21007;-77
2022/05/18 11:06:37;;;;;;;4.53;3.80;;;;;;;8.16;83.61;99712.05;1735722;82;21007;-77
2022/05/18 11:09:09;;;;;;;4.58;4.12;;;;;;;8.14;83.92;99707.30;1735429;82;21117;-77
2022/05/18 11:12:02;;;;;;;4.80;4.35;;;;;;;8.13;83.76;99716.05;1734481;82;21142;-77
2022/05/18 11:14:49;;;;;;;4.70;4.03;;;;;;;8.14;83.79;99717.78;1735421;82;21604;-76
2022/05/18 11:17:39;;;;;;;5.10;3.77;;;;;;;8.15;83.68;99714.70;1735560;82;21023;-76
2022/05/18 11:20:27;;;;;;;4.58;3.67;;;;;;;8.14;84.00;99720.41;1735768;82;21157;-76
2022/05/18 11:23:22;;;;;;;4.08;3.47;;;;;;;8.16;83.83;99723.84;1735664;82;21055;-75
2022/05/18 11:26:26;;;;;;;6.45;4.25;;;;;;;8.23;83.67;99728.97;1736110;82;21948;-76
2022/05/18 11:29:11;;;;;;;6.62;3.90;;;;;;;8.27;83.46;99734.55;1735428;82;21541;-77
2022/05/18 11:31:52;;;;;;;4.28;3.65;;;;;;;8.30;83.46;99746.28;1734894;82;21568;-76
2022/05/18 11:34:44;;;;;;;5.03;4.03;;;;;;;8.32;83.26;99744.48;1735387;82;21086;-76
2022/05/18 11:37:46;;;;;;;4.55;3.77;;;;;;;8.32;82.85;99746.67;1743023;81;21083;-76
2022/05/18 11:40:47;;;;;;;6.53;4.15;;;;;;;8.32;82.87;99744.48;1752393;81;22111;-76
2022/05/18 11:43:41;;;;;;;4.55;4.12;;;;;;;8.31;82.74;99752.80;1752057;81;21056;-76
2022/05/18 11:46:41;;;;;;;9.90;4.15;;;;;;;8.34;82.69;99752.74;1752346;81;21664;-76
2022/05/18 11:49:23;;;;;;;5.25;3.37;;;;;;;8.33;82.40;99758.02;1752465;81;21687;-77
2022/05/18 11:52:10;;;;;;;3.75;3.40;;;;;;;8.30;82.45;99754.14;1752175;81;21098;-77
2022/05/18 11:55:00;;;;;;;3.47;3.17;;;;;;;8.28;82.55;99763.80;1752306;81;21478;-77
2022/05/18 11:57:58;;;;;;;4.08;3.52;;;;;;;8.31;82.84;99771.61;1751896;81;20991;-77
2022/05/18 12:00:50;;;;;;;4.25;2.90;;;;;;;8.34;82.94;99768.93;1752392;81;21087;-77
2022/05/18 12:03:51;;;;;;;4.72;3.17;;;;;;;8.38;82.91;99770.12;1741779;82;21075;-76
2022/05/18 12:06:35;;;;;;;3.30;3.00;;;;;;;8.42;82.75;99777.47;1743004;82;21051;-77
2022/05/18 12:09:22;;;;;;;4.37;2.80;;;;;;;8.43;82.79;99772.68;1743684;82;21629;-78
2022/05/18 12:11:57;;;;;;;3.58;2.92;;;;;;;8.44;82.74;99773.11;1743910;82;21111;-78
2022/05/18 12:14:33;;;;;;;;;;;;;;;8.44;82.72;99770.48;1746447;82;21024;-78
2022/05/18 12:17:13;;;;;;;6.05;3.02;;;;;;;8.44;82.48;99759.11;1743761;82;20155;-82
2022/05/18 12:20:14;;;;;;;2.85;2.55;;;;;;;8.44;82.12;99770.48;1743231;82;21127;-82
2022/05/18 12:22:57;;;;;;;3.92;2.83;;;;;;;8.48;81.66;99776.06;1743862;82;21113;-82